Portada
METAR-TAF:

METAR-TAF

Aeroports :

Ulan-Udè, Rússia

latitud: 51-50N, longitud: 107-36E, altitud: 510 m

Observació

L'informe es va fer fa 30 minuts, a les 13:00 UTC
Vent 4 kt del Nord-Oest
Temperatura 18°C
Humitat 59%
Pressió 1006 hPa
Visibilitat: 9000 m

METAR: UIUU 141300Z 32002MPS 9000 NSC 18/10 Q1006 R26/CLRD60 NOSIG RMK QFE710/0947

Hora: 21:30 (13:30 UTC)

Pronòstic

L'informe es va fer fa 2 hores i 30 minuts, a les 11:00 UTC
Pronòstic vàlid del 14 a les 12 UTC al 15 a les 12 UTC
Vent 6 kt del Nord-Est amb ràfegues de 16 kt
Visibilitat 10 km o més
Núvols disperses a una alçada de 4000 ft, Cumulonimbus.
Temporalment
l' 14 a les 12 UTC al 14 a les 15 UTC
Vent 10 kt del Nord

TAF: UIUU 141100Z 1412/1512 05003G08MPS 9999 SCT040CB TEMPO 1412/1415 35005MPS

Observacions i pronòstics meteorològics de més de 4000 aeroports (METAR i TAF).

Les estacions disponibles són els punts grocs i vermells al mapa.

Posi el ratolí al punt desitjat per veure el nom de l'estació.

Feu clic per veure les observacions i els pronòstics meteorològics.

Per canviar el mapa: feu clic els botons verds amb una creu de color negre per apropar; al botó verd amb un guió per allunyar la imatge; o en les fletxes verdes per a mapes adjacents.


METAR-TAF: